createdAt,value
2018-12-25T00:01:48.621Z,21.17
2018-12-25T00:04:37.416Z,21.40
2018-12-25T00:07:26.141Z,23.20
2018-12-25T00:10:14.926Z,23.70
2018-12-25T00:12:56.105Z,21.93
2018-12-25T00:15:37.395Z,22.13
2018-12-25T00:18:19.133Z,20.83
2018-12-25T00:20:48.998Z,26.83
2018-12-25T00:23:37.820Z,23.97
2018-12-25T00:26:26.681Z,18.47
2018-12-25T00:29:07.772Z,19.93
2018-12-25T00:31:49.377Z,18.23
2018-12-25T00:34:30.609Z,20.93
2018-12-25T00:37:12.405Z,26.23
2018-12-25T00:39:53.561Z,20.03
2018-12-25T00:42:35.287Z,21.83
2018-12-25T00:45:18.291Z,21.13
2018-12-25T00:47:59.194Z,18.00
2018-12-25T00:50:40.732Z,20.07
2018-12-25T00:53:22.225Z,21.83
2018-12-25T00:55:51.930Z,25.23
2018-12-25T00:58:40.723Z,21.10
2018-12-25T01:01:22.015Z,23.00
2018-12-25T01:03:51.775Z,20.17
2018-12-25T01:06:40.677Z,22.73
2018-12-25T01:09:29.491Z,26.80
2018-12-25T01:12:10.829Z,20.73
2018-12-25T01:14:52.128Z,23.33
2018-12-25T01:17:33.087Z,24.33
2018-12-25T01:20:14.382Z,25.57
2018-12-25T01:22:55.853Z,29.43
2018-12-25T01:25:37.143Z,21.90
2018-12-25T01:28:18.869Z,26.33
2018-12-25T01:31:00.106Z,25.37
2018-12-25T01:33:41.570Z,25.70
2018-12-25T01:36:22.771Z,24.13
2018-12-25T01:39:04.924Z,26.17
2018-12-25T01:41:46.037Z,24.00
2018-12-25T01:44:27.534Z,19.63
2018-12-25T01:46:57.643Z,22.27
2018-12-25T01:49:46.535Z,23.90
2018-12-25T01:52:35.296Z,22.97
2018-12-25T01:55:24.030Z,26.43
2018-12-25T01:58:12.912Z,22.43
2018-12-25T02:01:01.637Z,20.07
2018-12-25T02:03:50.765Z,25.57
2018-12-25T02:06:39.516Z,21.23
2018-12-25T02:09:28.352Z,26.73
2018-12-25T02:11:58.241Z,26.33
2018-12-25T02:14:39.481Z,23.90
2018-12-25T02:17:20.759Z,21.00
2018-12-25T02:20:02.066Z,22.43
2018-12-25T02:22:42.959Z,22.40
2018-12-25T02:25:24.073Z,27.73
2018-12-25T02:28:05.406Z,23.43
2018-12-25T02:30:46.638Z,24.07
2018-12-25T02:33:27.790Z,20.00
2018-12-25T02:35:57.906Z,23.97
2018-12-25T02:38:47.047Z,20.33
2018-12-25T02:41:35.832Z,16.43
2018-12-25T02:44:24.588Z,22.97
2018-12-25T02:47:13.519Z,21.67
2018-12-25T02:50:02.274Z,24.00
2018-12-25T02:52:51.062Z,23.37
2018-12-25T02:55:39.900Z,25.67
2018-12-25T02:58:28.779Z,23.03
2018-12-25T03:01:17.650Z,24.10
2018-12-25T03:04:18.666Z,27.60
2018-12-25T03:06:56.910Z,23.77
2018-12-25T03:09:45.758Z,27.57
2018-12-25T03:12:34.427Z,26.30
2018-12-25T03:18:16.975Z,24.70
2018-12-25T03:20:58.398Z,25.40
2018-12-25T03:23:39.797Z,26.30
2018-12-25T03:26:21.116Z,29.47
2018-12-25T03:29:02.245Z,23.77
2018-12-25T03:31:43.703Z,24.10
2018-12-25T03:34:25.024Z,25.30
2018-12-25T03:37:06.236Z,27.87
2018-12-25T03:39:47.830Z,26.97
2018-12-25T03:42:28.925Z,26.07
2018-12-25T03:45:10.225Z,28.93
2018-12-25T03:47:51.340Z,27.80
2018-12-25T03:50:32.719Z,28.53
2018-12-25T03:53:14.392Z,23.00
2018-12-25T03:55:55.600Z,26.27
2018-12-25T03:58:37.354Z,20.53
2018-12-25T04:01:07.152Z,25.40
2018-12-25T04:03:55.965Z,25.00
2018-12-25T04:06:44.884Z,23.67
2018-12-25T04:09:26.187Z,23.77
2018-12-25T04:12:07.858Z,22.03
2018-12-25T04:14:49.595Z,24.53
2018-12-25T04:17:30.740Z,26.70
2018-12-25T04:20:19.667Z,23.77
2018-12-25T04:22:54.462Z,22.80
2018-12-25T04:25:35.971Z,19.43
2018-12-25T04:28:05.873Z,20.67
2018-12-25T04:30:54.587Z,24.43
2018-12-25T04:33:36.002Z,19.60
2018-12-25T04:36:05.827Z,19.73
2018-12-25T04:38:54.613Z,20.63
2018-12-25T04:41:35.723Z,23.27
2018-12-25T04:44:17.108Z,20.90
2018-12-25T04:46:58.277Z,20.93
2018-12-25T04:49:39.318Z,17.73
2018-12-25T04:52:09.199Z,25.33
2018-12-25T04:54:58.022Z,20.77
2018-12-25T04:57:39.691Z,26.17
2018-12-25T05:00:09.467Z,23.93
2018-12-25T05:02:50.970Z,19.57
2018-12-25T05:05:32.240Z,23.90
2018-12-25T05:08:13.810Z,22.07
2018-12-25T05:10:55.041Z,20.80
2018-12-25T05:13:36.726Z,21.17
2018-12-25T05:16:18.520Z,24.20
2018-12-25T05:18:59.919Z,21.67
2018-12-25T05:21:41.272Z,21.27
2018-12-25T05:24:10.990Z,18.17
2018-12-25T05:26:59.759Z,19.07
2018-12-25T05:29:48.436Z,20.10
2018-12-25T05:32:37.554Z,13.37
2018-12-25T05:35:18.600Z,18.63
2018-12-25T05:37:59.668Z,14.97
2018-12-25T05:40:40.591Z,18.20
2018-12-25T05:43:21.879Z,16.20
2018-12-25T05:46:03.103Z,16.40
2018-12-25T05:48:44.610Z,16.50
2018-12-25T05:51:14.507Z,16.40
2018-12-25T05:54:03.314Z,15.67
2018-12-25T05:56:44.507Z,15.63
2018-12-25T05:59:14.247Z,13.57
2018-12-25T06:02:02.975Z,13.87
2018-12-25T06:04:44.763Z,18.00
2018-12-25T06:07:14.518Z,14.90
2018-12-25T06:10:03.375Z,16.13
2018-12-25T06:12:44.324Z,17.17
2018-12-25T06:15:14.421Z,13.90
2018-12-25T06:17:56.152Z,21.03
2018-12-25T06:20:37.480Z,12.27
2018-12-25T06:23:20.553Z,13.70
2018-12-25T06:26:02.186Z,13.00
2018-12-25T06:28:43.744Z,17.27
2018-12-25T06:31:25.230Z,15.63
2018-12-25T06:34:06.498Z,16.97
2018-12-25T06:36:47.490Z,16.93
2018-12-25T06:39:17.381Z,18.47
2018-12-25T06:42:06.150Z,17.57
2018-12-25T06:44:47.744Z,15.40
2018-12-25T06:47:17.557Z,14.00
2018-12-25T06:50:06.416Z,16.27
2018-12-25T06:52:55.195Z,17.00
2018-12-25T06:55:36.521Z,16.70
2018-12-25T06:58:17.824Z,18.93
2018-12-25T07:00:59.094Z,15.43
2018-12-25T07:03:40.732Z,13.17
2018-12-25T07:06:21.862Z,13.40
2018-12-25T07:09:04.124Z,17.13
2018-12-25T07:11:46.680Z,14.70
2018-12-25T07:14:28.369Z,14.20
2018-12-25T07:17:10.068Z,17.93
2018-12-25T07:19:51.754Z,14.37
2018-12-25T07:22:21.869Z,11.83
2018-12-25T07:25:10.751Z,14.43
2018-12-25T07:27:51.860Z,12.93
2018-12-25T07:30:21.822Z,9.90
2018-12-25T07:33:10.570Z,13.63
2018-12-25T07:35:52.054Z,11.73
2018-12-25T07:38:21.773Z,13.50
2018-12-25T07:41:03.658Z,11.37
2018-12-25T07:43:44.841Z,12.97
2018-12-25T07:46:25.836Z,11.17
2018-12-25T07:49:07.213Z,12.17
2018-12-25T07:51:48.552Z,14.60
2018-12-25T07:54:30.140Z,18.53
2018-12-25T07:57:11.305Z,13.90
2018-12-25T07:59:52.974Z,16.40
2018-12-25T08:02:23.181Z,14.97
2018-12-25T08:05:11.856Z,17.27
2018-12-25T08:07:53.199Z,25.13
2018-12-25T08:10:23.030Z,17.40
2018-12-25T08:13:12.002Z,20.83
2018-12-25T08:15:53.910Z,18.77
2018-12-25T08:21:18.103Z,27.00
2018-12-25T08:24:07.245Z,19.20
2018-12-25T08:26:48.232Z,16.93
2018-12-25T08:29:29.536Z,18.07
2018-12-25T08:32:10.780Z,15.83
2018-12-25T08:34:51.891Z,15.90
2018-12-25T08:37:34.830Z,11.77
2018-12-25T08:40:15.709Z,14.53
2018-12-25T08:42:57.287Z,12.07
2018-12-25T08:45:27.285Z,13.67
2018-12-25T08:48:16.088Z,20.20
2018-12-25T08:50:57.428Z,22.27
2018-12-25T08:53:27.294Z,14.23
2018-12-25T08:56:16.064Z,14.73
2018-12-25T08:58:57.107Z,13.40
2018-12-25T09:01:27.083Z,17.90
2018-12-25T09:04:08.286Z,21.70
2018-12-25T09:06:49.641Z,14.47
2018-12-25T09:09:31.128Z,17.73
2018-12-25T09:12:12.681Z,18.83
2018-12-25T09:14:53.915Z,16.20
2018-12-25T09:17:35.593Z,21.57
2018-12-25T09:20:16.796Z,17.63
2018-12-25T09:22:58.026Z,19.70
2018-12-25T09:25:27.960Z,14.07
2018-12-25T09:28:16.931Z,22.43
2018-12-25T09:30:58.141Z,21.03
2018-12-25T09:33:28.142Z,20.63
2018-12-25T09:36:16.933Z,25.87
2018-12-25T09:38:46.909Z,23.77
2018-12-25T09:41:35.637Z,19.03
2018-12-25T09:44:17.046Z,22.70
2018-12-25T09:46:58.315Z,22.90
2018-12-25T09:49:39.919Z,26.47
2018-12-25T09:52:21.464Z,25.47
2018-12-25T09:55:02.831Z,26.07
2018-12-25T09:57:32.810Z,22.07
2018-12-25T10:00:21.587Z,18.93
2018-12-25T10:03:03.571Z,21.03
2018-12-25T10:05:33.383Z,19.80
2018-12-25T10:08:22.793Z,20.73
2018-12-25T10:11:04.350Z,20.73
2018-12-25T10:13:45.532Z,20.10
2018-12-25T10:16:27.008Z,25.53
2018-12-25T10:19:08.311Z,24.47
2018-12-25T10:21:49.439Z,24.00
2018-12-25T10:24:30.992Z,22.07
2018-12-25T10:27:13.348Z,19.27
2018-12-25T10:29:54.914Z,23.63
2018-12-25T10:32:36.260Z,22.63
2018-12-25T10:35:17.959Z,17.70
2018-12-25T10:37:59.079Z,16.63
2018-12-25T10:40:40.697Z,18.47
2018-12-25T10:43:21.853Z,18.53
2018-12-25T10:46:03.471Z,17.67
2018-12-25T10:48:33.256Z,21.87
2018-12-25T10:51:22.361Z,19.37
2018-12-25T10:54:03.730Z,17.53
2018-12-25T10:56:33.539Z,16.00
2018-12-25T10:59:22.373Z,18.70
2018-12-25T11:02:03.551Z,12.67
2018-12-25T11:04:44.739Z,19.40
2018-12-25T11:07:26.423Z,15.73
2018-12-25T11:10:07.723Z,18.00
2018-12-25T11:12:48.799Z,14.20
2018-12-25T11:15:31.086Z,17.60
2018-12-25T11:18:12.108Z,19.53
2018-12-25T11:20:53.779Z,14.50
2018-12-25T11:23:35.258Z,18.60
2018-12-25T11:26:16.495Z,20.50
2018-12-25T11:28:58.014Z,17.67
2018-12-25T11:31:39.085Z,12.00
2018-12-25T11:34:20.639Z,20.40
2018-12-25T11:37:01.815Z,21.43
2018-12-25T11:39:43.655Z,19.83
2018-12-25T11:42:25.286Z,16.50
2018-12-25T11:45:06.693Z,13.93
2018-12-25T11:47:48.118Z,18.73
2018-12-25T11:50:29.592Z,15.37
2018-12-25T11:53:10.951Z,19.50
2018-12-25T11:55:54.990Z,15.60
2018-12-25T11:58:52.575Z,19.37
2018-12-25T12:01:41.535Z,16.23
2018-12-25T12:04:23.039Z,15.03
2018-12-25T12:07:04.032Z,13.63
2018-12-25T12:09:45.317Z,15.27
2018-12-25T12:12:27.081Z,18.10
2018-12-25T12:15:08.317Z,16.83
2018-12-25T12:17:49.419Z,13.37
2018-12-25T12:20:30.862Z,13.97
2018-12-25T12:23:12.385Z,11.20
2018-12-25T12:25:42.174Z,11.90
2018-12-25T12:28:43.161Z,13.50
2018-12-25T12:31:14.296Z,15.57
2018-12-25T12:33:44.408Z,8.00
2018-12-25T12:36:33.419Z,10.43
2018-12-25T12:39:15.192Z,11.77
2018-12-25T12:41:56.727Z,11.57
2018-12-25T12:44:38.497Z,10.23
2018-12-25T12:47:21.660Z,8.80
2018-12-25T12:50:02.891Z,11.37
2018-12-25T12:52:45.599Z,11.07
2018-12-25T12:55:27.043Z,11.20
2018-12-25T12:58:08.176Z,11.87
2018-12-25T13:00:49.700Z,8.53
2018-12-25T13:03:30.925Z,8.40
2018-12-25T13:06:12.088Z,11.73
2018-12-25T13:08:42.177Z,9.73
2018-12-25T13:11:30.953Z,12.00
2018-12-25T13:14:20.046Z,9.67
2018-12-25T13:17:11.160Z,7.13
2018-12-25T13:19:59.935Z,9.00
2018-12-25T13:22:53.981Z,8.73
2018-12-25T13:25:39.745Z,7.73
2018-12-25T13:28:30.740Z,13.80
2018-12-25T13:31:19.742Z,10.30
2018-12-25T13:34:08.604Z,13.27
2018-12-25T13:36:57.468Z,13.80
2018-12-25T13:39:46.362Z,11.33
2018-12-25T13:42:35.236Z,11.40
2018-12-25T13:45:24.184Z,9.87
2018-12-25T13:48:13.067Z,14.63
2018-12-25T13:51:02.137Z,11.47
2018-12-25T13:54:36.456Z,11.80
2018-12-25T13:57:14.273Z,14.17
2018-12-25T14:00:03.203Z,7.90
2018-12-25T14:03:10.932Z,10.07
2018-12-25T14:05:59.883Z,12.33
2018-12-25T14:08:52.063Z,11.30
2018-12-25T14:11:33.822Z,11.63
2018-12-25T14:14:15.030Z,12.57
2018-12-25T14:16:57.482Z,5.30
2018-12-25T14:19:38.765Z,9.20
2018-12-25T14:22:20.875Z,10.43
2018-12-25T14:24:51.305Z,9.60
2018-12-25T14:27:40.256Z,10.93
2018-12-25T14:30:29.157Z,12.10
2018-12-25T14:33:38.339Z,5.53
2018-12-25T14:36:27.388Z,9.73
2018-12-25T14:39:17.773Z,13.03
2018-12-25T14:42:06.985Z,5.60
2018-12-25T14:44:56.112Z,12.70
2018-12-25T14:47:47.764Z,10.10
2018-12-25T14:50:37.015Z,14.40
2018-12-25T14:57:10.093Z,11.80
2018-12-25T14:59:48.368Z,10.33
2018-12-25T15:02:38.964Z,6.60
2018-12-25T15:05:30.945Z,7.00
2018-12-25T15:08:20.613Z,10.03
2018-12-25T15:11:09.695Z,8.17
2018-12-25T15:13:58.810Z,6.57
2018-12-25T15:16:47.757Z,10.70
2018-12-25T15:19:36.937Z,11.37
2018-12-25T15:22:25.798Z,8.63
2018-12-25T15:24:56.325Z,15.00
2018-12-25T15:27:37.940Z,15.60
2018-12-25T15:38:58.783Z,8.43
2018-12-25T15:41:48.213Z,10.63
2018-12-25T15:56:45.876Z,7.17
2018-12-25T16:08:58.467Z,6.77
2018-12-25T16:18:25.082Z,5.83
2018-12-25T16:40:58.187Z,8.07
2018-12-25T16:52:15.718Z,12.83
2018-12-25T16:55:34.533Z,10.13
2018-12-25T17:00:44.580Z,10.90
2018-12-25T17:03:25.885Z,10.17
2018-12-25T17:06:07.369Z,8.80
2018-12-25T17:23:43.441Z,8.50
2018-12-25T17:51:50.907Z,7.47
2018-12-25T18:03:36.735Z,5.57
2018-12-25T18:06:24.882Z,7.37
2018-12-25T18:09:09.504Z,7.80
2018-12-25T19:25:15.240Z,10.87
2018-12-25T19:36:47.780Z,12.57
2018-12-25T19:40:23.579Z,15.47
2018-12-25T19:45:24.527Z,13.57
2018-12-25T20:16:09.175Z,11.77
2018-12-25T20:21:39.384Z,18.03
2018-12-25T20:28:11.856Z,14.07
2018-12-25T20:33:41.288Z,13.50
2018-12-25T20:42:56.623Z,12.70
2018-12-25T20:48:52.661Z,9.40
2018-12-25T21:03:40.482Z,9.33
2018-12-25T21:06:50.034Z,8.33
2018-12-25T21:09:34.644Z,10.63
2018-12-25T21:12:44.304Z,10.10
2018-12-25T21:15:09.543Z,14.33
2018-12-25T21:18:22.304Z,11.33
2018-12-25T21:23:53.420Z,11.63
2018-12-25T21:26:40.743Z,14.40
2018-12-25T21:29:40.348Z,11.93
2018-12-25T21:32:00.540Z,11.13
2018-12-25T21:34:47.459Z,15.13
2018-12-25T21:37:31.593Z,10.03
2018-12-25T21:46:07.694Z,9.23
2018-12-25T21:54:43.791Z,10.27
2018-12-25T22:13:10.717Z,9.73
2018-12-25T22:14:26.209Z,14.20
2018-12-25T22:16:12.571Z,13.60
2018-12-25T22:21:33.992Z,8.73
2018-12-25T22:24:17.348Z,10.43
2018-12-25T22:33:10.337Z,13.87
2018-12-25T22:44:34.837Z,9.57
2018-12-25T22:47:16.097Z,7.73
2018-12-25T22:50:02.531Z,11.40
2018-12-25T22:52:41.526Z,14.13
2018-12-25T22:55:12.331Z,11.93
2018-12-25T22:58:04.295Z,7.73
2018-12-25T23:00:45.927Z,9.77
2018-12-25T23:03:27.625Z,12.60
2018-12-25T23:06:09.006Z,9.80
2018-12-25T23:08:52.190Z,8.70
2018-12-25T23:11:33.847Z,15.57
2018-12-25T23:14:18.300Z,12.87
2018-12-25T23:16:59.453Z,10.53
2018-12-25T23:19:43.385Z,9.93
2018-12-25T23:25:28.294Z,14.80
2018-12-25T23:30:56.322Z,15.20
2018-12-25T23:33:41.772Z,14.93
2018-12-25T23:36:31.326Z,13.57
2018-12-25T23:39:21.930Z,12.53
2018-12-25T23:48:13.441Z,12.20
2018-12-25T23:53:36.144Z,9.77
2018-12-25T23:59:06.514Z,8.83
